createdAt,value
2019-05-09T00:00:49.805Z,99231.70
2019-05-09T00:03:20.092Z,99236.86
2019-05-09T00:05:50.319Z,99231.80
2019-05-09T00:08:20.535Z,99238.50
2019-05-09T00:10:53.299Z,99243.73
2019-05-09T00:13:23.731Z,99238.59
2019-05-09T00:15:54.544Z,99248.93
2019-05-09T00:18:24.683Z,99246.59
2019-05-09T00:21:07.949Z,99248.33
2019-05-09T00:23:38.112Z,99250.69
2019-05-09T00:26:09.164Z,99250.61
2019-05-09T00:28:44.088Z,99251.70
2019-05-09T00:31:33.789Z,99252.50
2019-05-09T00:34:06.497Z,99249.20
2019-05-09T00:36:36.696Z,99250.12
2019-05-09T00:39:07.397Z,99250.21
2019-05-09T00:41:37.572Z,99246.78
2019-05-09T00:44:14.410Z,99240.36
2019-05-09T00:46:53.507Z,99245.46
2019-05-09T00:49:25.367Z,99254.27
2019-05-09T00:51:55.699Z,99250.93
2019-05-09T00:54:25.919Z,99252.63
2019-05-09T00:56:56.135Z,99251.05
2019-05-09T00:59:26.315Z,99262.36
2019-05-09T01:01:56.558Z,99267.25
2019-05-09T01:04:26.737Z,99265.03
2019-05-09T01:06:59.953Z,99260.44
2019-05-09T01:09:48.095Z,99259.55
2019-05-09T01:12:18.247Z,99260.63
2019-05-09T01:14:50.695Z,99250.03
2019-05-09T01:17:20.878Z,99247.42
2019-05-09T01:19:54.221Z,99250.85
2019-05-09T01:22:24.405Z,99258.73
2019-05-09T01:24:54.731Z,99260.72
2019-05-09T01:27:24.909Z,99260.53
2019-05-09T01:29:55.059Z,99255.23
2019-05-09T01:32:43.330Z,99264.45
2019-05-09T01:35:13.272Z,99261.30
2019-05-09T01:37:43.525Z,99264.09
2019-05-09T01:40:13.847Z,99265.87
2019-05-09T01:42:44.969Z,99263.22
2019-05-09T01:45:15.190Z,99266.77
2019-05-09T01:47:45.353Z,99268.17
2019-05-09T01:50:15.481Z,99268.73
2019-05-09T01:52:45.672Z,99267.93
2019-05-09T01:55:15.983Z,99272.39
2019-05-09T01:57:47.996Z,99274.72
2019-05-09T02:00:19.136Z,99273.80
2019-05-09T02:02:49.263Z,99276.45
2019-05-09T02:05:19.496Z,99272.95
2019-05-09T02:07:49.579Z,99276.97
2019-05-09T02:10:19.748Z,99269.89
2019-05-09T02:12:49.871Z,99275.44
2019-05-09T02:15:36.042Z,99270.59
2019-05-09T02:18:13.711Z,99272.06
2019-05-09T02:20:43.974Z,99274.27
2019-05-09T02:23:14.237Z,99274.27
2019-05-09T02:25:44.535Z,99278.70
2019-05-09T02:28:14.697Z,99276.84
2019-05-09T02:30:45.224Z,99275.52
2019-05-09T02:33:15.433Z,99273.72
2019-05-09T02:35:55.874Z,99273.47
2019-05-09T02:38:19.993Z,99272.22
2019-05-09T02:40:49.888Z,99266.84
2019-05-09T02:43:20.206Z,99261.86
2019-05-09T02:46:20.823Z,99262.97
2019-05-09T02:49:14.280Z,99260.29
2019-05-09T02:51:44.402Z,99258.96
2019-05-09T02:54:14.518Z,99262.46
2019-05-09T02:56:44.653Z,99261.45
2019-05-09T02:59:20.854Z,99264.30
2019-05-09T03:01:58.747Z,99263.05
2019-05-09T03:04:29.095Z,99260.38
2019-05-09T03:07:00.005Z,99263.36
2019-05-09T03:09:30.277Z,99275.86
2019-05-09T03:12:20.484Z,99277.36
2019-05-09T03:14:38.309Z,99272.90
2019-05-09T03:17:08.716Z,99277.28
2019-05-09T03:19:39.440Z,99283.91
2019-05-09T03:22:15.188Z,99285.23
2019-05-09T03:24:48.318Z,99286.59
2019-05-09T03:27:28.776Z,99293.87
2019-05-09T03:30:03.176Z,99289.97
2019-05-09T03:32:33.280Z,99297.84
2019-05-09T03:35:03.439Z,99289.89
2019-05-09T03:37:42.293Z,99294.79
2019-05-09T03:40:12.426Z,99297.32
2019-05-09T03:42:43.804Z,99302.55
2019-05-09T03:45:18.363Z,99297.25
2019-05-09T03:47:58.292Z,99302.05
2019-05-09T03:50:30.076Z,99306.97
2019-05-09T03:53:00.276Z,99303.55
2019-05-09T03:55:38.201Z,99307.37
2019-05-09T03:58:12.786Z,99304.57
2019-05-09T04:00:49.179Z,99306.45
2019-05-09T04:03:22.178Z,99307.63
2019-05-09T04:05:59.091Z,99308.42
2019-05-09T04:08:24.342Z,99315.91
2019-05-09T04:10:54.482Z,99316.26
2019-05-09T04:13:30.202Z,99319.11
2019-05-09T04:16:00.342Z,99321.71
2019-05-09T04:18:30.447Z,99329.07
2019-05-09T04:21:00.582Z,99326.81
2019-05-09T04:23:31.088Z,99329.23
2019-05-09T04:26:20.315Z,99330.13
2019-05-09T04:28:50.404Z,99324.84
2019-05-09T04:31:20.560Z,99328.98
2019-05-09T04:33:50.698Z,99333.64
2019-05-09T04:36:38.717Z,99337.87
2019-05-09T04:39:23.157Z,99337.20
2019-05-09T04:41:49.765Z,99346.98
2019-05-09T04:44:57.659Z,99348.38
2019-05-09T04:47:27.681Z,99356.82
2019-05-09T04:49:58.367Z,99350.36
2019-05-09T04:52:29.648Z,99351.03
2019-05-09T04:54:59.752Z,99353.32
2019-05-09T04:57:29.970Z,99350.98
2019-05-09T05:00:00.125Z,99346.98
2019-05-09T05:02:38.073Z,99354.77
2019-05-09T05:05:08.742Z,99352.94
2019-05-09T05:07:38.877Z,99352.88
2019-05-09T05:10:09.216Z,99354.46
2019-05-09T05:12:39.391Z,99355.94
2019-05-09T05:15:09.948Z,99353.13
2019-05-09T05:17:40.127Z,99353.55
2019-05-09T05:20:15.426Z,99352.73
2019-05-09T05:22:53.998Z,99359.02
2019-05-09T05:25:24.617Z,99355.41
2019-05-09T05:27:54.792Z,99348.13
2019-05-09T05:30:28.311Z,99351.02
2019-05-09T05:33:04.015Z,99349.73
2019-05-09T05:35:37.755Z,99359.11
2019-05-09T05:38:08.597Z,99358.06
2019-05-09T05:40:44.736Z,99355.28
2019-05-09T05:43:12.047Z,99353.50
2019-05-09T05:45:58.509Z,99351.58
2019-05-09T05:48:30.761Z,99356.65
2019-05-09T05:51:00.984Z,99357.65
2019-05-09T05:53:32.367Z,99360.39
2019-05-09T05:56:02.560Z,99362.58
2019-05-09T05:58:32.796Z,99368.13
2019-05-09T06:01:04.633Z,99372.51
2019-05-09T06:03:37.644Z,99371.33
2019-05-09T06:06:08.802Z,99379.55
2019-05-09T06:08:39.300Z,99380.66
2019-05-09T06:11:12.270Z,99381.43
2019-05-09T06:13:53.256Z,99377.83
2019-05-09T06:16:13.115Z,99381.56
2019-05-09T06:18:43.297Z,99379.05
2019-05-09T06:21:13.429Z,99379.12
2019-05-09T06:23:43.777Z,99377.64
2019-05-09T06:26:13.984Z,99383.19
2019-05-09T06:28:44.135Z,99387.59
2019-05-09T06:31:14.255Z,99384.15
2019-05-09T06:33:47.157Z,99386.56
2019-05-09T06:36:18.777Z,99390.72
2019-05-09T06:38:48.905Z,99393.38
2019-05-09T06:41:19.054Z,99394.83
2019-05-09T06:43:52.670Z,99397.13
2019-05-09T06:46:48.266Z,99394.30
2019-05-09T06:49:28.299Z,99398.45
2019-05-09T06:51:54.965Z,99396.19
2019-05-09T06:54:25.125Z,99395.25
2019-05-09T06:56:55.401Z,99401.67
2019-05-09T06:59:25.543Z,99400.23
2019-05-09T07:02:00.723Z,99394.97
2019-05-09T07:04:47.599Z,99404.16
2019-05-09T07:07:30.020Z,99410.86
2019-05-09T07:10:01.920Z,99411.61
2019-05-09T07:12:32.099Z,99410.14
2019-05-09T07:15:02.290Z,99409.33
2019-05-09T07:17:32.615Z,99413.59
2019-05-09T07:20:02.759Z,99414.25
2019-05-09T07:22:44.046Z,99410.38
2019-05-09T07:25:51.694Z,99407.05
2019-05-09T07:28:21.843Z,99406.52
2019-05-09T07:31:01.783Z,99411.22
2019-05-09T07:33:53.503Z,99403.67
2019-05-09T07:36:23.890Z,99403.61
2019-05-09T07:38:54.044Z,99405.44
2019-05-09T07:41:24.220Z,99402.16
2019-05-09T07:43:54.340Z,99405.54
2019-05-09T07:46:32.579Z,99407.89
2019-05-09T07:49:08.781Z,99407.18
2019-05-09T07:51:39.044Z,99411.03
2019-05-09T07:54:21.312Z,99414.72
2019-05-09T07:56:42.001Z,99406.92
2019-05-09T07:59:12.120Z,99409.68
2019-05-09T08:01:42.258Z,99408.64
2019-05-09T08:04:12.458Z,99421.55
2019-05-09T08:06:42.654Z,99424.17
2019-05-09T08:09:12.779Z,99425.84
2019-05-09T08:11:43.008Z,99424.80
2019-05-09T08:14:13.150Z,99426.12
2019-05-09T08:16:43.299Z,99427.84
2019-05-09T08:19:13.391Z,99423.67
2019-05-09T08:21:43.550Z,99430.56
2019-05-09T08:24:13.668Z,99436.91
2019-05-09T08:26:43.832Z,99442.52
2019-05-09T08:29:13.962Z,99434.09
2019-05-09T08:31:45.675Z,99439.32
2019-05-09T08:34:15.901Z,99434.19
2019-05-09T08:36:47.746Z,99425.87
2019-05-09T08:39:20.461Z,99428.22
2019-05-09T08:41:50.098Z,99427.36
2019-05-09T08:44:20.273Z,99420.99
2019-05-09T08:46:50.415Z,99421.28
2019-05-09T08:49:24.004Z,99419.44
2019-05-09T08:52:15.774Z,99408.78
2019-05-09T08:54:41.192Z,99406.45
2019-05-09T08:57:11.520Z,99413.14
2019-05-09T08:59:41.644Z,99418.14
2019-05-09T09:02:15.654Z,99415.73
2019-05-09T09:04:43.557Z,99419.88
2019-05-09T09:07:13.677Z,99424.52
2019-05-09T09:09:43.823Z,99422.94
2019-05-09T09:12:25.948Z,99423.88
2019-05-09T09:14:47.781Z,99421.95
2019-05-09T09:17:18.744Z,99419.70
2019-05-09T09:19:49.984Z,99409.54
2019-05-09T09:22:20.183Z,99410.09
2019-05-09T09:24:50.377Z,99407.33
2019-05-09T09:27:20.492Z,99406.30
2019-05-09T09:29:50.658Z,99410.02
2019-05-09T09:32:20.804Z,99410.11
2019-05-09T09:34:50.947Z,99411.42
2019-05-09T09:37:21.102Z,99406.51
2019-05-09T09:39:51.250Z,99408.61
2019-05-09T09:42:21.473Z,99416.31
2019-05-09T09:44:51.627Z,99405.49
2019-05-09T09:47:24.669Z,99407.70
2019-05-09T09:49:55.147Z,99406.63
2019-05-09T09:52:29.374Z,99407.27
2019-05-09T09:54:58.475Z,99400.04
2019-05-09T09:57:29.005Z,99394.52
2019-05-09T10:00:19.404Z,99397.14
2019-05-09T10:02:49.549Z,99394.11
2019-05-09T10:05:19.692Z,99403.77
2019-05-09T10:07:49.867Z,99404.05
2019-05-09T10:10:35.207Z,99399.70
2019-05-09T10:13:10.350Z,99400.78
2019-05-09T10:16:02.668Z,99399.67
2019-05-09T10:18:47.031Z,99400.17
2019-05-09T10:21:21.147Z,99398.45
2019-05-09T10:23:51.727Z,99403.11
2019-05-09T10:26:22.333Z,99396.30
2019-05-09T10:28:52.658Z,99393.55
2019-05-09T10:31:24.624Z,99398.89
2019-05-09T10:33:55.064Z,99398.10
2019-05-09T10:36:27.659Z,99396.97
2019-05-09T10:38:58.422Z,99391.84
2019-05-09T10:41:29.212Z,99389.43
2019-05-09T10:44:21.415Z,99395.69
2019-05-09T10:47:10.539Z,99399.28
2019-05-09T10:49:40.809Z,99395.27
2019-05-09T10:52:14.248Z,99392.01
2019-05-09T10:54:42.773Z,99396.41
2019-05-09T10:57:12.885Z,99395.66
2019-05-09T10:59:43.038Z,99389.84
2019-05-09T11:02:13.335Z,99381.48
2019-05-09T11:04:46.303Z,99381.80
2019-05-09T11:07:18.067Z,99396.59
2019-05-09T11:09:48.137Z,99386.48
2019-05-09T11:12:18.836Z,99386.38
2019-05-09T11:14:49.215Z,99386.45
2019-05-09T11:17:21.962Z,99386.84
2019-05-09T11:19:51.333Z,99386.05
2019-05-09T11:22:23.567Z,99386.47
2019-05-09T11:24:53.636Z,99383.34
2019-05-09T11:27:23.780Z,99382.45
2019-05-09T11:29:54.006Z,99376.28
2019-05-09T11:32:24.297Z,99381.08
2019-05-09T11:34:54.621Z,99380.77
2019-05-09T11:37:25.001Z,99386.28
2019-05-09T11:39:57.846Z,99380.08
2019-05-09T11:42:28.550Z,99386.31
2019-05-09T11:44:59.057Z,99377.38
2019-05-09T11:47:39.491Z,99392.11
2019-05-09T11:50:01.227Z,99383.57
2019-05-09T11:52:31.443Z,99389.63
2019-05-09T11:55:03.656Z,99386.85
2019-05-09T11:57:33.895Z,99394.12
2019-05-09T12:00:04.335Z,99393.84
2019-05-09T12:02:38.387Z,99397.97
2019-05-09T12:05:08.764Z,99387.72
2019-05-09T12:07:39.168Z,99380.12
2019-05-09T12:10:09.718Z,99384.17
2019-05-09T12:12:39.857Z,99385.76
2019-05-09T12:15:10.155Z,99384.06
2019-05-09T12:17:54.011Z,99378.03
2019-05-09T12:20:13.725Z,99374.72
2019-05-09T12:22:44.165Z,99380.00
2019-05-09T12:25:14.582Z,99386.59
2019-05-09T12:27:44.828Z,99386.78
2019-05-09T12:30:15.071Z,99387.80
2019-05-09T12:32:45.259Z,99388.58
2019-05-09T12:35:15.481Z,99390.88
2019-05-09T12:37:45.602Z,99380.31
2019-05-09T12:40:19.780Z,99389.03
2019-05-09T12:42:50.554Z,99386.22
2019-05-09T12:45:20.663Z,99391.45
2019-05-09T12:48:06.250Z,99395.34
2019-05-09T12:50:22.734Z,99394.80
2019-05-09T12:52:52.979Z,99386.92
2019-05-09T12:55:23.109Z,99384.41
2019-05-09T12:57:53.266Z,99382.13
2019-05-09T13:00:24.510Z,99367.85
2019-05-09T13:02:54.666Z,99379.92
2019-05-09T13:05:27.255Z,99385.45
2019-05-09T13:07:57.738Z,99386.02
2019-05-09T13:10:28.339Z,99386.44
2019-05-09T13:12:58.710Z,99374.02
2019-05-09T13:15:38.469Z,99382.45
2019-05-09T13:18:21.349Z,99385.98
2019-05-09T13:20:40.542Z,99382.80
2019-05-09T13:23:10.667Z,99387.72
2019-05-09T13:25:40.832Z,99389.23
2019-05-09T13:28:10.963Z,99389.23
2019-05-09T13:30:41.122Z,99393.13
2019-05-09T13:33:11.301Z,99390.69
2019-05-09T13:35:42.506Z,99394.23
2019-05-09T13:38:12.654Z,99384.63
2019-05-09T13:40:42.752Z,99390.19
2019-05-09T13:43:12.926Z,99387.33
2019-05-09T13:45:43.047Z,99390.66
2019-05-09T13:48:26.399Z,99395.72
2019-05-09T13:50:45.076Z,99387.98
2019-05-09T13:53:15.374Z,99390.50
2019-05-09T13:55:47.888Z,99390.31
2019-05-09T13:58:19.607Z,99386.99
2019-05-09T14:00:59.134Z,99385.13
2019-05-09T14:03:21.006Z,99391.03
2019-05-09T14:05:51.139Z,99389.95
2019-05-09T14:08:21.278Z,99391.97
2019-05-09T14:10:51.426Z,99393.15
2019-05-09T14:13:23.469Z,99394.28
2019-05-09T14:15:53.476Z,99388.73
2019-05-09T14:18:23.672Z,99395.74
2019-05-09T14:20:54.221Z,99398.55
2019-05-09T14:23:24.400Z,99404.36
2019-05-09T14:25:54.545Z,99397.48
2019-05-09T14:28:24.889Z,99405.20
2019-05-09T14:30:55.009Z,99403.27
2019-05-09T14:33:25.288Z,99399.84
2019-05-09T14:35:55.426Z,99405.09
2019-05-09T14:38:25.568Z,99406.91
2019-05-09T14:40:56.672Z,99400.08
2019-05-09T14:43:27.885Z,99401.91
2019-05-09T14:45:58.143Z,99400.76
2019-05-09T14:48:31.723Z,99398.69
2019-05-09T14:51:02.080Z,99397.97
2019-05-09T14:53:32.223Z,99397.76
2019-05-09T14:56:02.601Z,99402.87
2019-05-09T14:58:32.844Z,99398.53
2019-05-09T15:01:02.969Z,99399.52
2019-05-09T15:03:34.853Z,99394.34
2019-05-09T15:06:07.388Z,99401.19
2019-05-09T15:08:38.260Z,99395.94
2019-05-09T15:11:10.018Z,99396.31
2019-05-09T15:13:40.317Z,99401.06
2019-05-09T15:16:10.469Z,99392.00
2019-05-09T15:18:40.616Z,99390.34
2019-05-09T15:21:10.737Z,99398.79
2019-05-09T15:23:40.883Z,99389.49
2019-05-09T15:26:11.018Z,99394.46
2019-05-09T15:28:41.664Z,99399.57
2019-05-09T15:31:11.927Z,99406.95
2019-05-09T15:33:42.184Z,99415.92
2019-05-09T15:36:12.399Z,99416.42
2019-05-09T15:38:42.518Z,99425.37
2019-05-09T15:41:12.683Z,99425.23
2019-05-09T15:43:42.865Z,99426.58
2019-05-09T15:46:27.930Z,99425.98
2019-05-09T15:48:58.346Z,99428.17
2019-05-09T15:51:32.013Z,99426.20
2019-05-09T15:54:00.476Z,99428.77
2019-05-09T15:56:30.692Z,99430.33
2019-05-09T15:59:02.937Z,99437.61
2019-05-09T16:01:33.174Z,99433.98
2019-05-09T16:04:08.398Z,99436.44
2019-05-09T16:06:39.737Z,99441.89
2019-05-09T16:09:12.085Z,99438.97
2019-05-09T16:11:43.856Z,99436.80
2019-05-09T16:14:18.203Z,99433.99
2019-05-09T16:16:48.109Z,99445.09
2019-05-09T16:19:18.386Z,99442.53
2019-05-09T16:21:52.417Z,99443.52
2019-05-09T16:24:27.814Z,99442.13
2019-05-09T16:26:59.417Z,99443.66
2019-05-09T16:29:32.481Z,99446.60
2019-05-09T16:32:02.750Z,99446.77
2019-05-09T16:34:32.844Z,99448.41
2019-05-09T16:37:07.806Z,99447.08
2019-05-09T16:39:40.623Z,99455.81
2019-05-09T16:42:13.891Z,99450.41
2019-05-09T16:44:43.977Z,99450.22
2019-05-09T16:47:14.280Z,99452.86
2019-05-09T16:49:44.459Z,99455.92
2019-05-09T16:52:20.482Z,99458.00
2019-05-09T16:55:08.192Z,99454.86
2019-05-09T16:57:43.316Z,99454.20
2019-05-09T17:00:18.325Z,99462.43
2019-05-09T17:02:48.550Z,99450.82
2019-05-09T17:05:18.723Z,99456.18
2019-05-09T17:07:52.163Z,99456.66
2019-05-09T17:10:22.909Z,99458.86
2019-05-09T17:12:58.214Z,99455.84
2019-05-09T17:15:29.210Z,99450.39
2019-05-09T17:17:59.541Z,99458.29
2019-05-09T17:20:42.214Z,99466.53
2019-05-09T17:23:18.698Z,99465.86
2019-05-09T17:25:57.850Z,99470.64
2019-05-09T17:28:30.284Z,99472.19
2019-05-09T17:31:00.581Z,99482.22
2019-05-09T17:33:30.745Z,99479.55
2019-05-09T17:36:00.832Z,99479.09
2019-05-09T17:38:30.974Z,99473.19
2019-05-09T17:41:02.529Z,99481.18
2019-05-09T17:43:34.338Z,99485.63
2019-05-09T17:46:04.501Z,99479.80
2019-05-09T17:48:34.652Z,99488.58
2019-05-09T17:51:04.744Z,99492.90
2019-05-09T17:53:34.878Z,99490.94
2019-05-09T17:56:10.895Z,99490.66
2019-05-09T17:58:43.754Z,99488.24
2019-05-09T18:01:17.959Z,99492.77
2019-05-09T18:03:48.354Z,99497.16
2019-05-09T18:06:19.265Z,99497.58
2019-05-09T18:08:50.510Z,99499.81
2019-05-09T18:11:21.911Z,99499.38
2019-05-09T18:13:52.163Z,99504.75
2019-05-09T18:16:22.299Z,99511.48
2019-05-09T18:18:55.519Z,99506.26
2019-05-09T18:21:25.658Z,99511.06
2019-05-09T18:23:58.635Z,99516.13
2019-05-09T18:26:28.987Z,99522.92
2019-05-09T18:29:01.745Z,99518.28
2019-05-09T18:31:48.215Z,99524.78
2019-05-09T18:34:18.708Z,99528.62
2019-05-09T18:36:48.790Z,99529.29
2019-05-09T18:39:20.311Z,99530.58
2019-05-09T18:41:50.459Z,99533.55
2019-05-09T18:44:21.535Z,99533.47
2019-05-09T18:46:52.894Z,99537.00
2019-05-09T18:49:23.021Z,99539.02
2019-05-09T18:52:03.287Z,99539.38
2019-05-09T18:54:25.271Z,99550.27
2019-05-09T18:56:57.952Z,99544.24
2019-05-09T18:59:31.355Z,99549.78
2019-05-09T19:02:01.845Z,99546.53
2019-05-09T19:04:32.003Z,99552.25
2019-05-09T19:07:02.115Z,99552.83
2019-05-09T19:09:32.323Z,99557.23
2019-05-09T19:12:02.536Z,99556.74
2019-05-09T19:14:34.761Z,99555.66
2019-05-09T19:17:32.758Z,99561.98
2019-05-09T19:20:26.193Z,99561.11
2019-05-09T19:22:56.627Z,99568.41
2019-05-09T19:25:26.765Z,99573.89
2019-05-09T19:27:56.881Z,99573.69
2019-05-09T19:30:27.020Z,99579.76
2019-05-09T19:32:57.115Z,99580.11
2019-05-09T19:35:27.735Z,99585.23
2019-05-09T19:37:57.852Z,99584.69
2019-05-09T19:40:27.991Z,99578.84
2019-05-09T19:43:03.041Z,99590.82
2019-05-09T19:45:33.289Z,99595.81
2019-05-09T19:48:03.566Z,99601.78
2019-05-09T19:50:33.671Z,99603.62
2019-05-09T19:53:03.918Z,99607.40
2019-05-09T19:55:34.073Z,99612.06
2019-05-09T19:58:04.245Z,99611.93
2019-05-09T20:00:34.630Z,99613.19
2019-05-09T20:03:05.141Z,99615.62
2019-05-09T20:05:36.263Z,99612.91
2019-05-09T20:08:06.518Z,99616.86
2019-05-09T20:10:54.642Z,99621.83
2019-05-09T20:13:41.784Z,99624.42
2019-05-09T20:16:12.291Z,99632.19
2019-05-09T20:18:42.512Z,99638.08
2019-05-09T20:21:12.635Z,99635.19
2019-05-09T20:23:42.759Z,99639.16
2019-05-09T20:26:13.442Z,99643.91
2019-05-09T20:28:43.595Z,99647.61
2019-05-09T20:31:13.861Z,99661.85
2019-05-09T20:33:44.045Z,99661.30
2019-05-09T20:36:14.202Z,99657.68
2019-05-09T20:38:44.637Z,99656.43
2019-05-09T20:41:14.954Z,99665.91
2019-05-09T20:43:45.383Z,99666.99
2019-05-09T20:46:15.719Z,99666.83
2019-05-09T20:48:46.170Z,99674.49
2019-05-09T20:51:16.514Z,99670.73
2019-05-09T20:53:46.862Z,99677.27
2019-05-09T20:56:17.254Z,99674.60
2019-05-09T20:58:47.556Z,99681.41
2019-05-09T21:01:17.944Z,99677.58
2019-05-09T21:03:59.709Z,99688.81
2019-05-09T21:06:20.294Z,99691.62
2019-05-09T21:08:50.674Z,99698.02
2019-05-09T21:11:21.062Z,99697.30
2019-05-09T21:13:51.350Z,99696.39
2019-05-09T21:16:21.664Z,99699.05
2019-05-09T21:18:52.040Z,99701.53
2019-05-09T21:21:22.366Z,99703.08
2019-05-09T21:23:53.745Z,99704.01
2019-05-09T21:26:24.152Z,99700.17
2019-05-09T21:28:54.492Z,99708.37
2019-05-09T21:31:24.945Z,99711.22
2019-05-09T21:33:56.530Z,99710.55
2019-05-09T21:36:26.800Z,99710.63
2019-05-09T21:38:56.966Z,99708.34
2019-05-09T21:41:27.088Z,99715.23
2019-05-09T21:43:58.752Z,99722.53
2019-05-09T21:46:28.866Z,99713.65
2019-05-09T21:48:58.976Z,99712.69
2019-05-09T21:51:29.064Z,99717.08
2019-05-09T21:53:59.190Z,99718.30
2019-05-09T21:56:29.275Z,99717.38
2019-05-09T21:58:59.402Z,99715.57
2019-05-09T22:01:29.566Z,99733.31
2019-05-09T22:04:02.119Z,99731.66
2019-05-09T22:06:32.308Z,99730.91
2019-05-09T22:09:03.680Z,99735.67
2019-05-09T22:11:33.868Z,99734.81
2019-05-09T22:14:03.991Z,99736.73
2019-05-09T22:16:34.145Z,99739.27
2019-05-09T22:19:04.266Z,99740.08
2019-05-09T22:21:34.438Z,99740.59
2019-05-09T22:24:04.658Z,99736.81
2019-05-09T22:26:34.868Z,99738.73
2019-05-09T22:29:05.086Z,99744.31
2019-05-09T22:31:35.175Z,99743.91
2019-05-09T22:34:05.332Z,99740.98
2019-05-09T22:36:35.450Z,99744.30
2019-05-09T22:39:07.371Z,99746.67
2019-05-09T22:41:37.466Z,99748.38
2019-05-09T22:44:07.601Z,99752.70
2019-05-09T22:46:37.703Z,99748.38
2019-05-09T22:49:07.870Z,99759.06
2019-05-09T22:51:37.986Z,99754.81
2019-05-09T22:54:12.648Z,99758.58
2019-05-09T22:56:40.132Z,99756.47
2019-05-09T22:59:10.255Z,99760.04
2019-05-09T23:01:40.341Z,99758.30
2019-05-09T23:04:10.454Z,99759.08
2019-05-09T23:06:40.537Z,99759.72
2019-05-09T23:09:10.686Z,99759.85
2019-05-09T23:11:40.804Z,99760.77
2019-05-09T23:14:11.035Z,99760.89
2019-05-09T23:16:44.160Z,99759.70
2019-05-09T23:19:14.508Z,99762.08
2019-05-09T23:21:44.572Z,99763.53
2019-05-09T23:24:27.946Z,99757.34
2019-05-09T23:26:48.554Z,99760.53
2019-05-09T23:29:18.677Z,99751.76
2019-05-09T23:32:12.098Z,99761.23
2019-05-09T23:34:42.424Z,99761.45
2019-05-09T23:37:13.242Z,99757.03
2019-05-09T23:39:45.313Z,99758.42
2019-05-09T23:42:15.420Z,99759.40
2019-05-09T23:44:45.503Z,99772.19
2019-05-09T23:47:15.596Z,99767.35
2019-05-09T23:49:45.764Z,99762.75
2019-05-09T23:52:15.852Z,99764.98
2019-05-09T23:55:04.947Z,99772.23
2019-05-09T23:57:52.628Z,99771.04
